KOLV/OLV METAR and TAF weather

Enter ICAO airport designator
Station Type Date Time Source
KOLV METAR 2023/03/22 08:35 UTC NOAA

KOLV 220835Z AUTO 16007G13KT 4SM BR FEW005 SCT033 OVC050 11/10 A3011 RMK A01


Station Type Date Time Source
KOLV Decoded METAR 2023/03/22 08:35 UTC NOAA

Olive Branch, Olive Branch Airport, MS, United States (KOLV) 34-58-44N 089-47-13W
Mar 22, 2023 - 04:35 AM EDT / 2023.03.22 0835 UTC
Wind: from the SSE (160 degrees) at 8 MPH (7 KT) gusting to 15 MPH (13 KT):0
Visibility: 4 mile(s):0
Sky conditions: overcast
Weather: mist
Temperature: 51 F (11 C)
Dew Point: 50 F (10 C)
Relative Humidity: 93%
Pressure (altimeter): 30.11 in. Hg (1019 hPa)
ob: KOLV 220835Z AUTO 16007G13KT 4SM BR FEW005 SCT033 OVC050 11/10 A3011 RMK A01
cycle: 8

Station Type Date Time Source
KOLV TAF UTC NOAA

Error!

Example: see airport list